createdAt,value
2022-08-11T00:02:02.415Z,64.49
2022-08-11T00:04:37.343Z,64.55
2022-08-11T00:07:07.042Z,64.38
2022-08-11T00:09:41.983Z,63.89
2022-08-11T00:12:18.764Z,63.48
2022-08-11T00:14:55.725Z,64.07
2022-08-11T00:17:28.912Z,63.97
2022-08-11T00:20:18.768Z,64.49
2022-08-11T00:22:48.236Z,64.75
2022-08-11T00:25:19.530Z,64.56
2022-08-11T00:27:49.149Z,64.79
2022-08-11T00:30:18.290Z,64.85
2022-08-11T00:32:55.320Z,64.75
2022-08-11T00:35:52.570Z,64.89
2022-08-11T00:38:16.121Z,64.81
2022-08-11T00:41:33.641Z,65.00
2022-08-11T00:44:40.350Z,65.36
2022-08-11T00:47:36.543Z,65.17
2022-08-11T00:50:41.081Z,65.53
2022-08-11T00:53:36.039Z,65.50
2022-08-11T00:56:40.905Z,65.91
2022-08-11T00:59:34.836Z,66.97
2022-08-11T01:02:08.981Z,66.55
2022-08-11T01:04:50.221Z,66.28
2022-08-11T01:08:16.909Z,65.78
2022-08-11T01:11:15.885Z,65.67
2022-08-11T01:14:02.180Z,64.62
2022-08-11T01:16:52.384Z,64.81
2022-08-11T01:20:44.970Z,64.65
2022-08-11T01:23:27.104Z,64.77
2022-08-11T01:26:31.811Z,65.01
2022-08-11T01:29:49.376Z,65.13
2022-08-11T01:32:55.648Z,65.44
2022-08-11T01:36:04.682Z,66.03
2022-08-11T01:38:55.771Z,65.86
2022-08-11T01:41:47.131Z,66.06
2022-08-11T01:45:15.682Z,66.11
2022-08-11T01:48:01.216Z,65.65
2022-08-11T01:51:16.964Z,66.41
2022-08-11T01:54:18.021Z,67.36
2022-08-11T01:56:52.600Z,67.78
2022-08-11T01:59:51.059Z,67.31
2022-08-11T02:02:54.977Z,66.84
2022-08-11T02:05:47.794Z,66.46
2022-08-11T02:09:04.182Z,67.64
2022-08-11T02:11:38.262Z,66.84
2022-08-11T02:14:24.251Z,67.72
2022-08-11T02:16:59.698Z,68.50
2022-08-11T02:20:21.692Z,68.05
2022-08-11T02:24:04.350Z,68.04
2022-08-11T02:26:11.157Z,68.85
2022-08-11T02:29:00.553Z,69.41
2022-08-11T02:32:23.792Z,69.18
2022-08-11T02:35:19.482Z,69.20
2022-08-11T02:38:15.691Z,69.27
2022-08-11T02:40:53.135Z,69.70
2022-08-11T02:44:00.539Z,69.18
2022-08-11T02:46:38.015Z,69.57
2022-08-11T02:49:46.222Z,69.28
2022-08-11T02:53:01.069Z,69.56
2022-08-11T02:55:56.065Z,69.29
2022-08-11T02:59:11.986Z,69.65
2022-08-11T03:02:04.999Z,70.62
2022-08-11T03:05:04.797Z,71.07
2022-08-11T03:08:18.878Z,70.04
2022-08-11T03:11:28.251Z,69.32
2022-08-11T03:15:00.934Z,69.91
2022-08-11T03:17:52.100Z,69.51
2022-08-11T03:20:39.549Z,69.10
2022-08-11T03:23:36.892Z,69.23
2022-08-11T03:26:30.392Z,70.53
2022-08-11T03:29:18.217Z,71.31
2022-08-11T03:32:05.103Z,70.22
2022-08-11T03:34:38.250Z,69.58
2022-08-11T03:37:51.368Z,69.00
2022-08-11T03:40:58.892Z,69.07
2022-08-11T03:43:58.454Z,68.99
2022-08-11T03:46:48.871Z,68.97
2022-08-11T03:49:56.099Z,68.68
2022-08-11T03:52:51.210Z,69.60
2022-08-11T03:55:56.018Z,70.28
2022-08-11T03:58:50.971Z,69.55
2022-08-11T04:01:38.290Z,69.54
2022-08-11T04:04:51.222Z,70.01
2022-08-11T04:07:56.883Z,70.60
2022-08-11T04:10:33.412Z,70.49
2022-08-11T04:13:29.459Z,70.69
2022-08-11T04:16:31.040Z,70.72
2022-08-11T04:19:16.349Z,71.14
2022-08-11T04:22:20.830Z,70.95
2022-08-11T04:25:09.238Z,70.97
2022-08-11T04:28:29.165Z,70.76
2022-08-11T04:31:44.089Z,70.39
2022-08-11T04:34:57.302Z,70.42
2022-08-11T04:38:05.421Z,70.96
2022-08-11T04:40:55.265Z,71.20
2022-08-11T04:44:02.467Z,71.08
2022-08-11T04:47:11.074Z,70.94
2022-08-11T04:50:11.203Z,70.67
2022-08-11T04:53:20.987Z,70.59
2022-08-11T04:56:31.767Z,70.39
2022-08-11T04:59:51.997Z,70.45
2022-08-11T05:03:04.651Z,70.38
2022-08-11T05:06:01.905Z,69.76
2022-08-11T05:08:47.617Z,69.83
2022-08-11T05:12:01.699Z,70.18
2022-08-11T05:15:07.950Z,70.67
2022-08-11T05:18:04.182Z,70.55
2022-08-11T05:21:05.470Z,70.35
2022-08-11T05:23:55.007Z,70.23
2022-08-11T05:26:49.618Z,69.97
2022-08-11T05:30:00.022Z,69.88
2022-08-11T05:33:02.293Z,70.93
2022-08-11T05:36:01.335Z,71.77
2022-08-11T05:38:53.397Z,71.53
2022-08-11T05:41:46.219Z,71.01
2022-08-11T05:44:39.293Z,71.30
2022-08-11T05:47:30.414Z,71.06
2022-08-11T05:50:17.133Z,70.33
2022-08-11T05:53:21.134Z,70.44
2022-08-11T05:56:14.018Z,71.01
2022-08-11T05:58:44.752Z,68.76
2022-08-11T06:01:27.057Z,67.08
2022-08-11T06:04:17.042Z,65.93
2022-08-11T06:07:03.376Z,65.11
2022-08-11T06:09:35.773Z,65.91
2022-08-11T06:12:09.129Z,62.64
2022-08-11T06:14:43.382Z,62.59
2022-08-11T06:17:11.166Z,60.45
2022-08-11T06:19:47.442Z,63.26
2022-08-11T06:22:21.932Z,59.87
2022-08-11T06:24:57.249Z,61.20
2022-08-11T06:27:26.812Z,59.42
2022-08-11T06:29:55.827Z,58.03
2022-08-11T06:32:36.338Z,57.17
2022-08-11T06:35:48.601Z,56.28
2022-08-11T06:38:37.322Z,57.32
2022-08-11T06:41:33.474Z,55.04
2022-08-11T06:44:28.271Z,56.37
2022-08-11T06:47:01.258Z,54.67
2022-08-11T06:50:08.024Z,53.54
2022-08-11T06:52:37.899Z,52.80
2022-08-11T06:55:57.068Z,53.12
2022-08-11T06:58:24.264Z,52.39
2022-08-11T07:00:59.860Z,53.32
2022-08-11T07:03:34.211Z,51.82
2022-08-11T07:06:50.987Z,51.75
2022-08-11T07:10:01.249Z,51.39
2022-08-11T07:13:04.643Z,50.38
2022-08-11T07:16:11.643Z,50.60
2022-08-11T07:18:55.009Z,50.28
2022-08-11T07:22:00.955Z,48.28
2022-08-11T07:25:37.280Z,48.62
2022-08-11T07:28:45.062Z,48.69
2022-08-11T07:32:04.249Z,46.41
2022-08-11T07:34:41.681Z,46.29
2022-08-11T07:37:24.897Z,45.98
2022-08-11T07:39:55.274Z,45.13
2022-08-11T07:42:29.549Z,45.42
2022-08-11T07:45:16.825Z,43.39
2022-08-11T07:48:05.101Z,43.37
2022-08-11T07:50:55.883Z,43.00
2022-08-11T07:53:23.799Z,42.85
2022-08-11T07:55:54.814Z,41.48
2022-08-11T07:58:44.933Z,43.00
2022-08-11T08:01:40.963Z,41.50
2022-08-11T08:04:29.711Z,43.06
2022-08-11T08:07:16.651Z,42.01
2022-08-11T08:10:04.310Z,40.73
2022-08-11T08:12:51.081Z,40.20
2022-08-11T08:15:40.149Z,40.29
2022-08-11T08:18:26.642Z,37.48
2022-08-11T08:20:59.839Z,37.13
2022-08-11T08:23:34.282Z,38.57
2022-08-11T08:26:04.849Z,38.50
2022-08-11T08:28:34.438Z,37.54
2022-08-11T08:31:01.798Z,38.45
2022-08-11T08:33:31.611Z,39.47
2022-08-11T08:36:14.182Z,38.53
2022-08-11T08:38:48.963Z,37.85
2022-08-11T08:41:25.718Z,36.81
2022-08-11T08:44:05.869Z,36.98
2022-08-11T08:46:48.714Z,38.79
2022-08-11T08:49:20.736Z,37.43
2022-08-11T08:52:01.900Z,35.54
2022-08-11T08:54:43.709Z,35.40
2022-08-11T08:57:12.338Z,35.71
2022-08-11T08:59:48.670Z,37.50
2022-08-11T09:02:33.466Z,38.36
2022-08-11T09:05:04.566Z,35.52
2022-08-11T09:07:38.530Z,34.98
2022-08-11T09:10:08.494Z,38.27
2022-08-11T09:12:41.635Z,32.98
2022-08-11T09:15:12.405Z,33.70
2022-08-11T09:17:43.805Z,33.74
2022-08-11T09:20:17.685Z,34.06
2022-08-11T09:26:15.796Z,35.69
2022-08-11T09:28:44.619Z,36.10
2022-08-11T09:31:13.616Z,32.39
2022-08-11T09:33:43.026Z,32.32
2022-08-11T09:36:31.001Z,32.41
2022-08-11T09:39:35.549Z,35.22
2022-08-11T09:42:04.700Z,31.96
2022-08-11T09:44:49.697Z,29.22
2022-08-11T09:47:29.872Z,30.89
2022-08-11T09:50:02.610Z,31.69
2022-08-11T09:52:36.412Z,30.59
2022-08-11T09:55:11.409Z,29.61
2022-08-11T09:58:06.707Z,29.22
2022-08-11T10:00:40.514Z,30.61
2022-08-11T10:03:15.622Z,30.17
2022-08-11T10:06:08.220Z,30.14
2022-08-11T10:08:39.488Z,31.11
2022-08-11T10:11:10.526Z,31.87
2022-08-11T10:14:31.011Z,33.12
2022-08-11T10:16:50.604Z,33.08
2022-08-11T10:19:20.089Z,32.70
2022-08-11T10:22:14.272Z,31.88
2022-08-11T10:25:03.263Z,32.03
2022-08-11T10:28:16.644Z,32.96
2022-08-11T10:30:36.863Z,33.84
2022-08-11T10:33:36.808Z,33.44
2022-08-11T10:36:16.047Z,32.06
2022-08-11T10:38:47.153Z,35.63
2022-08-11T10:41:33.922Z,31.92
2022-08-11T10:44:04.002Z,32.21
2022-08-11T10:46:50.834Z,32.82
2022-08-11T10:49:20.425Z,33.25
2022-08-11T10:52:06.905Z,31.67
2022-08-11T10:54:53.548Z,30.45
2022-08-11T10:57:41.838Z,30.82
2022-08-11T11:00:15.368Z,30.14
2022-08-11T11:03:23.361Z,30.54
2022-08-11T11:05:34.268Z,28.62
2022-08-11T11:08:33.603Z,27.32
2022-08-11T11:11:02.884Z,29.20
2022-08-11T11:13:53.235Z,29.13
2022-08-11T11:16:44.498Z,28.78
2022-08-11T11:19:13.772Z,29.47
2022-08-11T11:21:42.376Z,30.69
2022-08-11T11:24:34.241Z,30.77
2022-08-11T11:27:14.810Z,29.89
2022-08-11T11:29:59.730Z,29.37
2022-08-11T11:32:35.793Z,28.70
2022-08-11T11:35:26.831Z,27.15
2022-08-11T11:38:04.164Z,29.57
2022-08-11T11:40:32.945Z,28.12
2022-08-11T11:43:01.275Z,26.65
2022-08-11T11:45:28.631Z,27.30
2022-08-11T11:47:58.510Z,27.41
2022-08-11T11:50:36.890Z,27.35
2022-08-11T11:53:08.338Z,26.51
2022-08-11T11:55:36.633Z,27.21
2022-08-11T11:58:23.711Z,26.93
2022-08-11T12:01:12.199Z,26.89
2022-08-11T12:03:40.577Z,27.00
2022-08-11T12:06:09.729Z,27.33
2022-08-11T12:08:38.171Z,26.56
2022-08-11T12:11:28.077Z,26.27
2022-08-11T12:13:58.912Z,27.27
2022-08-11T12:16:34.338Z,24.63
2022-08-11T12:19:25.250Z,25.73
2022-08-11T12:22:13.616Z,25.24
2022-08-11T12:25:00.103Z,26.01
2022-08-11T12:27:30.267Z,25.21
2022-08-11T12:30:09.568Z,24.04
2022-08-11T12:32:40.458Z,23.91
2022-08-11T12:35:09.489Z,24.40
2022-08-11T12:37:44.907Z,23.21
2022-08-11T12:40:43.660Z,24.85
2022-08-11T12:43:41.175Z,24.68
2022-08-11T12:46:14.492Z,26.41
2022-08-11T12:49:06.174Z,23.29
2022-08-11T12:52:00.969Z,24.20
2022-08-11T12:55:01.941Z,25.99
2022-08-11T12:57:58.508Z,24.05
2022-08-11T13:00:46.988Z,24.13
2022-08-11T13:03:33.470Z,25.22
2022-08-11T13:06:02.949Z,23.66
2022-08-11T13:08:33.362Z,24.88
2022-08-11T13:11:19.863Z,23.91
2022-08-11T13:13:54.739Z,22.41
2022-08-11T13:16:28.122Z,22.32
2022-08-11T13:18:57.865Z,23.64
2022-08-11T13:21:26.694Z,22.39
2022-08-11T13:24:01.086Z,22.70
2022-08-11T13:26:47.487Z,23.77
2022-08-11T13:29:29.104Z,24.47
2022-08-11T13:32:00.967Z,23.89
2022-08-11T13:34:34.546Z,23.73
2022-08-11T13:37:05.368Z,24.75
2022-08-11T13:39:34.637Z,23.40
2022-08-11T13:42:04.948Z,24.37
2022-08-11T13:44:36.604Z,24.40
2022-08-11T13:47:08.056Z,24.60
2022-08-11T13:49:41.344Z,25.56
2022-08-11T13:52:17.111Z,24.82
2022-08-11T13:54:48.369Z,24.30
2022-08-11T13:58:06.721Z,24.80
2022-08-11T14:00:15.844Z,24.80
2022-08-11T14:02:55.653Z,24.26
2022-08-11T14:05:28.247Z,24.14
2022-08-11T14:08:37.272Z,25.08
2022-08-11T14:12:22.665Z,24.23
2022-08-11T14:14:13.860Z,23.69
2022-08-11T14:16:45.423Z,25.53
2022-08-11T14:19:15.374Z,25.55
2022-08-11T14:22:07.300Z,24.03
2022-08-11T14:24:41.514Z,24.91
2022-08-11T14:28:32.557Z,25.44
2022-08-11T14:29:59.346Z,25.50
2022-08-11T14:32:27.767Z,25.29
2022-08-11T14:34:56.147Z,23.68
2022-08-11T14:37:25.919Z,24.26
2022-08-11T14:40:02.242Z,25.30
2022-08-11T14:42:49.106Z,24.63
2022-08-11T14:45:58.409Z,24.25
2022-08-11T14:48:24.061Z,24.57
2022-08-11T14:50:51.884Z,24.84
2022-08-11T14:53:23.126Z,24.81
2022-08-11T14:56:09.847Z,23.74
2022-08-11T14:58:37.431Z,25.58
2022-08-11T15:01:24.899Z,25.28
2022-08-11T15:04:29.728Z,24.83
2022-08-11T15:06:40.223Z,24.45
2022-08-11T15:09:09.272Z,24.41
2022-08-11T15:11:55.707Z,25.06
2022-08-11T15:14:42.387Z,25.40
2022-08-11T15:17:13.306Z,24.54
2022-08-11T15:20:09.746Z,26.31
2022-08-11T15:22:55.505Z,24.85
2022-08-11T15:25:23.092Z,24.69
2022-08-11T15:28:13.111Z,24.74
2022-08-11T15:31:01.071Z,25.34
2022-08-11T15:33:48.711Z,25.09
2022-08-11T15:36:34.865Z,25.50
2022-08-11T15:39:08.766Z,25.77
2022-08-11T15:42:12.469Z,26.42
2022-08-11T15:45:03.673Z,25.49
2022-08-11T15:47:42.030Z,25.03
2022-08-11T15:50:15.427Z,24.71
2022-08-11T15:52:51.123Z,24.78
2022-08-11T15:55:20.001Z,24.89
2022-08-11T15:58:09.590Z,24.57
2022-08-11T16:01:03.886Z,24.73
2022-08-11T16:04:07.602Z,25.40
2022-08-11T16:06:47.498Z,25.30
2022-08-11T16:09:21.331Z,24.29
2022-08-11T16:11:50.873Z,25.22
2022-08-11T16:14:38.509Z,25.43
2022-08-11T16:17:10.142Z,25.44
2022-08-11T16:19:40.347Z,25.00
2022-08-11T16:22:12.310Z,25.01
2022-08-11T16:27:02.079Z,26.05
2022-08-11T16:27:35.924Z,26.11
2022-08-11T16:30:07.111Z,25.96
2022-08-11T16:32:37.945Z,26.22
2022-08-11T16:35:28.793Z,25.40
2022-08-11T16:38:16.849Z,26.04
2022-08-11T16:40:45.313Z,26.11
2022-08-11T16:43:36.169Z,26.35
2022-08-11T16:46:24.791Z,26.50
2022-08-11T16:48:55.728Z,26.97
2022-08-11T16:51:23.628Z,27.00
2022-08-11T16:54:04.466Z,27.35
2022-08-11T16:56:44.235Z,27.27
2022-08-11T16:59:20.809Z,27.63
2022-08-11T17:01:53.527Z,27.91
2022-08-11T17:05:11.016Z,27.77
2022-08-11T17:08:01.321Z,27.69
2022-08-11T17:10:56.656Z,27.17
2022-08-11T17:13:36.072Z,28.10
2022-08-11T17:16:12.601Z,28.31
2022-08-11T17:19:00.074Z,27.55
2022-08-11T17:21:30.662Z,27.53
2022-08-11T17:24:07.930Z,27.11
2022-08-11T17:26:57.928Z,27.64
2022-08-11T17:29:29.921Z,27.87
2022-08-11T17:32:15.958Z,28.42
2022-08-11T17:35:04.584Z,27.97
2022-08-11T17:37:34.683Z,28.76
2022-08-11T17:40:05.979Z,28.40
2022-08-11T17:42:54.151Z,29.19
2022-08-11T17:45:41.755Z,29.46
2022-08-11T17:48:26.478Z,29.63
2022-08-11T17:50:56.445Z,29.15
2022-08-11T17:54:02.100Z,29.52
2022-08-11T17:56:50.883Z,29.75
2022-08-11T17:59:37.480Z,30.30
2022-08-11T18:02:34.669Z,30.26
2022-08-11T18:05:12.223Z,29.99
2022-08-11T18:08:04.127Z,30.46
2022-08-11T18:10:52.033Z,30.54
2022-08-11T18:13:41.518Z,30.51
2022-08-11T18:16:28.326Z,30.76
2022-08-11T18:19:14.382Z,31.07
2022-08-11T18:22:14.278Z,31.16
2022-08-11T18:25:07.326Z,31.29
2022-08-11T18:27:54.943Z,31.65
2022-08-11T18:30:41.580Z,31.75
2022-08-11T18:33:56.806Z,31.83
2022-08-11T18:36:40.618Z,31.62
2022-08-11T18:39:31.363Z,31.45
2022-08-11T18:42:29.703Z,31.58
2022-08-11T18:45:19.967Z,31.63
2022-08-11T18:48:11.578Z,31.65
2022-08-11T18:51:31.383Z,31.83
2022-08-11T18:54:15.268Z,32.14
2022-08-11T18:57:04.754Z,32.32
2022-08-11T18:59:55.032Z,32.30
2022-08-11T19:02:49.427Z,32.71
2022-08-11T19:06:05.897Z,32.81
2022-08-11T19:08:49.422Z,32.65
2022-08-11T19:11:42.808Z,32.54
2022-08-11T19:14:31.543Z,32.69
2022-08-11T19:17:44.491Z,33.45
2022-08-11T19:20:33.600Z,33.32
2022-08-11T19:23:21.748Z,33.34
2022-08-11T19:26:08.521Z,33.45
2022-08-11T19:28:57.686Z,33.38
2022-08-11T19:31:45.269Z,34.04
2022-08-11T19:34:41.183Z,33.57
2022-08-11T19:37:28.746Z,34.06
2022-08-11T19:40:25.837Z,34.13
2022-08-11T19:43:23.347Z,34.48
2022-08-11T19:46:17.207Z,34.60
2022-08-11T19:49:05.184Z,34.75
2022-08-11T19:51:55.915Z,34.87
2022-08-11T19:54:51.506Z,34.59
2022-08-11T19:57:40.322Z,35.04
2022-08-11T20:00:38.393Z,35.58
2022-08-11T20:03:27.884Z,34.51
2022-08-11T20:06:18.224Z,34.57
2022-08-11T20:09:06.294Z,34.90
2022-08-11T20:11:58.773Z,34.50
2022-08-11T20:14:49.280Z,34.62
2022-08-11T20:17:36.626Z,35.40
2022-08-11T20:20:25.095Z,35.74
2022-08-11T20:23:13.895Z,35.29
2022-08-11T20:26:14.225Z,36.20
2022-08-11T20:29:06.312Z,35.69
2022-08-11T20:31:52.502Z,36.19
2022-08-11T20:34:38.593Z,35.51
2022-08-11T20:37:25.483Z,35.63
2022-08-11T20:40:13.781Z,35.90
2022-08-11T20:43:01.967Z,36.18
2022-08-11T20:45:55.284Z,35.33
2022-08-11T20:48:44.160Z,35.67
2022-08-11T20:51:33.788Z,35.88
2022-08-11T20:54:38.258Z,37.53
2022-08-11T20:57:35.657Z,38.86
2022-08-11T21:00:39.339Z,39.32
2022-08-11T21:03:35.622Z,39.97
2022-08-11T21:06:31.309Z,40.39
2022-08-11T21:09:20.863Z,40.35
2022-08-11T21:12:14.383Z,40.84
2022-08-11T21:15:04.944Z,41.03
2022-08-11T21:18:00.309Z,41.85
2022-08-11T21:20:48.157Z,40.93
2022-08-11T21:23:37.051Z,42.41
2022-08-11T21:26:26.924Z,42.10
2022-08-11T21:29:14.464Z,41.91
2022-08-11T21:32:01.115Z,43.13
2022-08-11T21:34:47.507Z,43.18
2022-08-11T21:37:35.025Z,42.96
2022-08-11T21:40:24.211Z,42.25
2022-08-11T21:43:12.518Z,43.31
2022-08-11T21:45:59.579Z,42.98
2022-08-11T21:48:46.557Z,42.67
2022-08-11T21:51:32.093Z,43.18
2022-08-11T21:54:19.156Z,43.49
2022-08-11T21:57:06.135Z,43.92
2022-08-11T22:00:03.403Z,43.35
2022-08-11T22:02:57.725Z,43.79
2022-08-11T22:05:45.751Z,44.08
2022-08-11T22:08:31.765Z,45.03
2022-08-11T22:11:32.048Z,45.43
2022-08-11T22:14:22.269Z,45.45
2022-08-11T22:17:09.742Z,46.07
2022-08-11T22:19:57.999Z,45.78
2022-08-11T22:22:52.353Z,45.57
2022-08-11T22:25:53.638Z,45.87
2022-08-11T22:28:40.804Z,46.08
2022-08-11T22:31:27.358Z,46.71
2022-08-11T22:34:13.435Z,47.10
2022-08-11T22:37:01.675Z,46.38
2022-08-11T22:40:00.013Z,47.75
2022-08-11T22:42:50.496Z,47.16
2022-08-11T22:45:36.466Z,46.70
2022-08-11T22:48:24.807Z,47.29
2022-08-11T22:51:12.363Z,46.45
2022-08-11T22:53:59.372Z,47.40
2022-08-11T22:56:50.880Z,47.87
2022-08-11T22:59:38.464Z,47.07
2022-08-11T23:02:25.979Z,47.18
2022-08-11T23:05:11.640Z,46.98
2022-08-11T23:07:58.218Z,47.34
2022-08-11T23:10:45.352Z,48.44
2022-08-11T23:13:31.906Z,47.74
2022-08-11T23:16:18.161Z,47.62
2022-08-11T23:19:04.633Z,48.27
2022-08-11T23:21:52.539Z,48.08
2022-08-11T23:24:40.224Z,48.25
2022-08-11T23:27:28.234Z,48.66
2022-08-11T23:30:19.336Z,49.14
2022-08-11T23:33:10.130Z,49.64
2022-08-11T23:36:03.356Z,50.15
2022-08-11T23:38:51.374Z,49.86
2022-08-11T23:41:37.419Z,50.49
2022-08-11T23:44:24.396Z,50.02
2022-08-11T23:47:14.704Z,49.92
2022-08-11T23:50:01.225Z,51.26
2022-08-11T23:52:48.275Z,49.94
2022-08-11T23:55:39.192Z,49.94
2022-08-11T23:58:26.235Z,49.29
